Time;durP1;ratioP1;P1;durP2;ratioP2;P2;SDS_P1;SDS_P2;PMS_P1;PMS_P2;Temp;Humidity;BMP_temperature;BMP_pressure;BME280_temperature;BME280_humidity;BME280_pressure;Samples;Min_cycle;Max_cycle;Signal;HPM_P1;HPM_P2
2023/05/09 00:00:09;;;;;;;4.63;4.15;;;11.40;99.40;;;;;;4996073;28;20207;-84
2023/05/09 00:02:37;;;;;;;8.30;4.78;;;11.40;99.50;;;;;;4997181;28;20338;-83
2023/05/09 00:05:03;;;;;;;5.13;4.30;;;11.40;99.50;;;;;;4997053;28;20220;-84
2023/05/09 00:07:30;;;;;;;7.18;4.05;;;11.40;99.60;;;;;;4996038;28;20179;-84
2023/05/09 00:09:56;;;;;;;5.45;4.80;;;11.40;99.60;;;;;;4995775;28;20211;-83
2023/05/09 00:12:22;;;;;;;5.80;4.50;;;11.40;99.60;;;;;;4997122;28;20539;-82
2023/05/09 00:14:50;;;;;;;5.47;4.30;;;11.40;99.60;;;;;;4997435;28;20445;-84
2023/05/09 00:17:17;;;;;;;5.30;4.68;;;11.30;99.60;;;;;;4998235;28;20927;-83
2023/05/09 00:19:43;;;;;;;6.25;4.50;;;11.30;99.70;;;;;;4996035;28;20250;-84
2023/05/09 00:22:11;;;;;;;5.80;4.28;;;11.30;99.70;;;;;;4996940;28;20172;-83
2023/05/09 00:24:37;;;;;;;8.00;5.50;;;11.20;99.80;;;;;;4996776;28;20183;-84
2023/05/09 00:27:04;;;;;;;5.97;5.03;;;11.20;99.90;;;;;;4996851;28;20225;-83
2023/05/09 00:29:30;;;;;;;5.15;4.18;;;11.20;99.90;;;;;;4995746;28;20531;-84
2023/05/09 00:31:56;;;;;;;6.80;4.80;;;11.20;99.90;;;;;;4995417;28;20709;-83
2023/05/09 00:34:21;;;;;;;5.17;4.27;;;11.10;99.90;;;;;;4995455;28;20254;-83
2023/05/09 00:36:47;;;;;;;7.60;4.90;;;11.00;99.90;;;;;;4995368;28;20205;-84
2023/05/09 00:39:13;;;;;;;7.23;5.10;;;11.00;99.90;;;;;;4995592;28;20176;-84
2023/05/09 00:41:38;;;;;;;6.30;4.90;;;10.90;99.90;;;;;;4996542;28;20200;-84
2023/05/09 00:44:04;;;;;;;6.60;5.07;;;10.90;99.90;;;;;;4996614;28;20223;-83
2023/05/09 00:46:30;;;;;;;5.00;4.50;;;11.00;99.90;;;;;;4995162;28;20203;-83
2023/05/09 00:48:56;;;;;;;6.90;4.63;;;11.00;99.90;;;;;;4996207;28;20198;-83
2023/05/09 00:51:22;;;;;;;6.30;4.63;;;11.00;99.90;;;;;;4996342;28;20436;-84
2023/05/09 00:53:49;;;;;;;6.45;5.13;;;11.00;99.90;;;;;;4994981;28;20479;-84
2023/05/09 00:56:15;;;;;;;6.65;5.55;;;11.00;99.90;;;;;;4995019;28;20768;-84
2023/05/09 00:58:41;;;;;;;7.38;5.20;;;11.00;99.90;;;;;;4996521;28;20702;-84
2023/05/09 01:01:10;;;;;;;7.43;5.77;;;10.90;99.90;;;;;;4994908;28;20286;-85
2023/05/09 01:03:39;;;;;;;7.30;6.53;;;10.90;99.90;;;;;;4996097;28;20212;-83
2023/05/09 01:06:23;;;;;;;10.80;7.45;;;10.80;99.90;;;;;;4994861;28;20200;-84
2023/05/09 01:09:04;;;;;;;6.03;4.70;;;10.80;99.90;;;;;;4996276;28;20195;-83
2023/05/09 01:11:42;;;;;;;8.95;5.68;;;10.70;99.90;;;;;;4994715;28;20207;-83
2023/05/09 01:14:32;;;;;;;8.23;5.50;;;10.70;99.90;;;;;;4996443;28;20183;-83
2023/05/09 01:17:10;;;;;;;6.22;4.75;;;10.70;99.90;;;;;;4986163;28;20685;-83
2023/05/09 01:19:49;;;;;;;8.85;5.63;;;10.70;99.90;;;;;;4994786;28;20191;-84
2023/05/09 01:22:16;;;;;;;6.28;5.13;;;10.60;99.90;;;;;;4994717;28;20168;-84
2023/05/09 01:25:06;;;;;;;8.65;5.20;;;10.60;99.90;;;;;;4996730;28;20638;-85
2023/05/09 01:28:10;;;;;;;6.50;5.15;;;10.50;99.90;;;;;;4997291;28;20259;-83
2023/05/09 01:30:37;;;;;;;8.15;4.95;;;10.50;99.90;;;;;;4994944;28;20245;-83
2023/05/09 01:33:06;;;;;;;6.80;5.18;;;10.40;99.90;;;;;;4995630;28;20218;-82
2023/05/09 01:35:36;;;;;;;10.30;5.53;;;10.40;99.90;;;;;;4994705;28;20188;-83
2023/05/09 01:38:11;;;;;;;9.35;6.30;;;10.40;99.90;;;;;;4994274;28;20184;-84
2023/05/09 01:40:39;;;;;;;9.38;5.05;;;10.40;99.90;;;;;;4995578;28;20195;-84
2023/05/09 01:43:08;;;;;;;7.22;5.60;;;10.40;99.90;;;;;;4995233;28;20227;-83
2023/05/09 01:45:37;;;;;;;8.93;5.80;;;10.40;99.90;;;;;;4994121;28;20283;-83
2023/05/09 01:48:05;;;;;;;7.45;6.10;;;10.40;99.90;;;;;;4994028;28;20192;-83
2023/05/09 01:50:34;;;;;;;8.85;5.30;;;10.40;99.90;;;;;;4995265;28;20187;-83
2023/05/09 01:53:01;;;;;;;7.43;5.25;;;10.40;99.90;;;;;;4995236;28;20172;-83
2023/05/09 01:55:29;;;;;;;6.90;5.75;;;10.40;99.90;;;;;;4993838;28;20200;-83
2023/05/09 01:57:57;;;;;;;8.20;6.20;;;10.30;99.90;;;;;;4995072;28;20203;-83
2023/05/09 02:00:23;;;;;;;7.30;5.57;;;10.30;99.90;;;;;;4995041;28;20192;-83
2023/05/09 02:02:50;;;;;;;9.00;6.15;;;10.30;99.90;;;;;;4993753;28;20207;-84
2023/05/09 02:05:17;;;;;;;7.22;5.47;;;10.20;99.90;;;;;;4993443;28;20318;-82
2023/05/09 02:07:45;;;;;;;9.23;6.20;;;10.20;99.90;;;;;;4995030;28;20206;-83
2023/05/09 02:10:12;;;;;;;9.10;5.70;;;10.10;99.90;;;;;;4994957;28;20200;-83
2023/05/09 02:12:37;;;;;;;7.88;5.65;;;10.10;99.90;;;;;;4994949;28;20592;-83
2023/05/09 02:15:04;;;;;;;7.97;5.70;;;10.00;99.90;;;;;;4993576;28;20235;-84
2023/05/09 02:17:31;;;;;;;7.68;5.60;;;10.10;99.90;;;;;;4994867;28;20175;-84
2023/05/09 02:19:56;;;;;;;8.80;6.05;;;10.00;99.90;;;;;;4993872;28;20704;-83
2023/05/09 02:22:23;;;;;;;13.17;6.83;;;9.90;99.90;;;;;;4997446;28;20179;-84
2023/05/09 02:24:49;;;;;;;8.20;5.82;;;9.90;99.90;;;;;;4994321;28;20437;-83
2023/05/09 02:27:15;;;;;;;7.27;5.07;;;9.90;99.90;;;;;;4994670;28;20173;-84
2023/05/09 02:29:49;;;;;;;10.15;6.13;;;9.90;99.90;;;;;;4993473;28;20430;-83
2023/05/09 02:32:19;;;;;;;8.77;6.18;;;9.90;99.90;;;;;;4993406;28;20178;-83
2023/05/09 02:34:46;;;;;;;9.32;6.07;;;10.10;99.90;;;;;;4993488;28;20183;-83
2023/05/09 02:37:12;;;;;;;9.70;6.25;;;10.00;99.90;;;;;;4994602;28;20176;-83
2023/05/09 02:39:38;;;;;;;6.93;5.70;;;9.90;99.90;;;;;;4994908;28;20210;-84
2023/05/09 02:42:06;;;;;;;11.13;7.83;;;9.70;99.90;;;;;;4994458;28;20250;-83
2023/05/09 02:44:32;;;;;;;7.60;6.22;;;9.60;99.90;;;;;;4994787;28;20905;-82
2023/05/09 02:46:58;;;;;;;8.77;6.10;;;9.60;99.90;;;;;;4992873;28;20199;-83
2023/05/09 02:49:24;;;;;;;14.33;6.50;;;9.60;99.90;;;;;;4994237;28;20187;-83
2023/05/09 02:51:49;;;;;;;8.90;6.10;;;9.60;99.90;;;;;;4993055;28;20246;-83
2023/05/09 02:54:15;;;;;;;7.60;5.63;;;9.80;99.90;;;;;;4994703;28;20179;-83
2023/05/09 02:56:41;;;;;;;8.30;6.20;;;9.70;99.90;;;;;;4994250;28;20191;-83
2023/05/09 02:59:06;;;;;;;7.90;5.60;;;9.80;99.90;;;;;;4993049;28;20672;-83
2023/05/09 03:01:32;;;;;;;8.80;6.03;;;9.70;99.90;;;;;;4994217;28;20227;-83
2023/05/09 03:03:57;;;;;;;8.40;6.40;;;9.80;99.90;;;;;;4992833;28;20306;-83
2023/05/09 03:06:23;;;;;;;10.27;6.30;;;9.70;99.90;;;;;;4994296;28;20215;-84
2023/05/09 03:08:49;;;;;;;8.67;5.93;;;9.70;99.90;;;;;;4993606;28;20194;-83
2023/05/09 03:11:14;;;;;;;8.10;6.00;;;9.60;99.90;;;;;;4996362;28;20270;-82
2023/05/09 03:13:40;;;;;;;9.77;6.50;;;9.60;99.90;;;;;;4995500;28;20180;-83
2023/05/09 03:16:06;;;;;;;10.37;6.77;;;9.50;99.90;;;;;;4994030;28;20195;-83
2023/05/09 03:18:31;;;;;;;11.37;6.27;;;9.60;99.90;;;;;;4994302;28;20672;-82
2023/05/09 03:20:57;;;;;;;8.97;6.70;;;9.50;99.90;;;;;;4992587;28;20280;-83
2023/05/09 03:23:23;;;;;;;10.70;6.57;;;9.40;99.90;;;;;;4994001;28;20231;-83
2023/05/09 03:25:48;;;;;;;9.80;7.13;;;9.50;99.90;;;;;;4993957;28;20191;-83
2023/05/09 03:28:14;;;;;;;8.10;6.40;;;9.50;99.90;;;;;;4994136;28;20690;-83
2023/05/09 03:30:40;;;;;;;8.83;6.37;;;9.50;99.90;;;;;;4992718;28;20669;-83
2023/05/09 03:33:06;;;;;;;9.40;6.50;;;9.50;99.90;;;;;;4992574;28;20238;-84
2023/05/09 03:35:32;;;;;;;11.55;6.75;;;9.40;99.90;;;;;;4992657;28;20234;-83
2023/05/09 03:37:58;;;;;;;11.13;7.10;;;9.30;99.90;;;;;;4992628;28;20219;-84
2023/05/09 03:40:24;;;;;;;9.50;6.30;;;9.30;99.90;;;;;;4992536;28;20725;-83
2023/05/09 03:42:49;;;;;;;10.90;6.60;;;9.40;99.90;;;;;;4992552;28;20208;-83
2023/05/09 03:45:15;;;;;;;8.90;5.97;;;9.30;99.90;;;;;;4992528;28;20206;-82
2023/05/09 03:47:43;;;;;;;10.60;6.67;;;9.30;99.90;;;;;;4993723;28;20409;-83
2023/05/09 03:50:09;;;;;;;13.38;10.00;;;9.40;99.90;;;;;;4993881;28;20692;-83
2023/05/09 03:52:36;;;;;;;9.48;6.75;;;9.40;99.90;;;;;;4992478;28;20187;-83
2023/05/09 03:55:02;;;;;;;11.45;6.78;;;9.30;99.90;;;;;;4992526;28;20227;-84
2023/05/09 03:57:28;;;;;;;11.45;6.97;;;9.50;99.90;;;;;;4992429;28;20176;-83
2023/05/09 03:59:53;;;;;;;10.43;6.70;;;9.70;99.90;;;;;;4995973;28;20546;-84
2023/05/09 04:02:19;;;;;;;11.70;7.30;;;9.80;99.90;;;;;;4997193;28;20262;-82
2023/05/09 04:04:46;;;;;;;10.80;7.63;;;10.00;99.90;;;;;;4995822;28;20229;-84
2023/05/09 04:07:11;;;;;;;10.95;6.93;;;10.10;99.90;;;;;;4996084;28;20175;-83
2023/05/09 04:09:37;;;;;;;9.77;5.80;;;10.20;99.90;;;;;;4997941;28;20764;-83
2023/05/09 04:12:03;;;;;;;10.83;6.73;;;10.70;99.90;;;;;;4984293;28;20192;-82
2023/05/09 04:14:29;;;;;;;10.77;7.72;;;10.90;99.90;;;;;;4992436;28;20188;-82
2023/05/09 04:16:54;;;;;;;14.33;7.03;;;10.90;99.90;;;;;;4992586;28;20252;-83
2023/05/09 04:19:20;;;;;;;9.67;7.20;;;10.90;99.90;;;;;;4992748;28;20634;-83
2023/05/09 04:21:46;;;;;;;11.13;7.00;;;10.90;99.90;;;;;;4977380;28;20195;-82
2023/05/09 04:24:11;;;;;;;10.00;7.27;;;10.90;99.90;;;;;;4992462;28;20295;-82
2023/05/09 04:26:37;;;;;;;11.03;7.40;;;11.00;99.90;;;;;;4976006;28;20283;-82
2023/05/09 04:29:03;;;;;;;10.68;7.72;;;11.10;99.90;;;;;;4992374;28;20211;-84
2023/05/09 04:31:30;;;;;;;8.50;6.97;;;11.20;99.90;;;;;;4976027;28;20196;-84
2023/05/09 04:33:57;;;;;;;9.25;7.07;;;11.20;99.90;;;;;;4978968;28;20180;-84
2023/05/09 04:36:23;;;;;;;9.93;7.38;;;11.30;99.90;;;;;;4987353;28;20204;-83
2023/05/09 04:38:49;;;;;;;12.73;7.82;;;11.30;99.90;;;;;;4988955;28;20550;-83
2023/05/09 04:41:15;;;;;;;10.07;7.00;;;11.30;99.90;;;;;;4996371;28;20196;-84
2023/05/09 04:43:42;;;;;;;10.80;7.07;;;11.30;99.90;;;;;;4987303;28;20220;-84
2023/05/09 04:46:07;;;;;;;10.15;7.43;;;11.40;99.90;;;;;;4975662;28;20204;-83
2023/05/09 04:48:34;;;;;;;10.63;7.00;;;11.40;99.90;;;;;;4983054;28;20312;-83
2023/05/09 04:51:00;;;;;;;8.98;7.25;;;11.50;99.90;;;;;;4995481;28;20195;-83
2023/05/09 04:53:27;;;;;;;10.43;7.07;;;11.50;99.90;;;;;;4994495;28;20203;-83
2023/05/09 04:55:53;;;;;;;9.52;7.05;;;11.50;99.90;;;;;;4994604;28;20211;-83
2023/05/09 04:58:19;;;;;;;12.02;6.70;;;11.60;99.90;;;;;;4996284;28;20207;-83
2023/05/09 05:00:45;;;;;;;8.63;6.80;;;11.60;99.90;;;;;;4994600;28;20230;-83
2023/05/09 05:03:11;;;;;;;9.90;6.47;;;11.60;99.90;;;;;;4994568;28;20298;-83
2023/05/09 05:05:37;;;;;;;8.23;6.53;;;11.70;99.90;;;;;;4994148;28;20235;-82
2023/05/09 05:08:03;;;;;;;8.83;6.20;;;11.80;99.90;;;;;;4990480;28;20193;-83
2023/05/09 05:10:29;;;;;;;9.55;6.55;;;11.80;99.90;;;;;;4991927;28;20275;-84
2023/05/09 05:12:55;;;;;;;10.05;6.85;;;11.60;99.90;;;;;;4990942;28;20180;-83
2023/05/09 05:15:20;;;;;;;8.77;6.20;;;11.60;99.90;;;;;;4977381;28;20197;-83
2023/05/09 05:17:46;;;;;;;9.90;7.33;;;11.50;99.90;;;;;;4975045;28;20489;-82
2023/05/09 05:20:12;;;;;;;9.57;7.23;;;11.40;99.90;;;;;;4975635;28;20204;-83
2023/05/09 05:22:37;;;;;;;11.40;7.00;;;11.40;99.90;;;;;;4986328;28;20176;-82
2023/05/09 05:25:04;;;;;;;9.87;7.17;;;11.40;99.90;;;;;;4977447;28;20778;-83
2023/05/09 05:27:30;;;;;;;9.30;6.35;;;11.40;99.90;;;;;;4979224;28;20264;-83
2023/05/09 05:29:56;;;;;;;9.70;6.65;;;11.40;99.90;;;;;;4973951;28;20378;-84
2023/05/09 05:32:21;;;;;;;10.50;7.13;;;11.50;99.90;;;;;;4977196;28;20266;-84
2023/05/09 05:34:47;;;;;;;11.30;6.10;;;11.50;99.90;;;;;;4985360;28;20211;-84
2023/05/09 05:37:13;;;;;;;9.70;6.27;;;11.60;99.90;;;;;;4982757;28;20250;-84
2023/05/09 05:39:38;;;;;;;9.83;6.83;;;11.70;99.90;;;;;;4980114;28;20634;-84
2023/05/09 05:42:04;;;;;;;8.30;6.63;;;11.70;99.90;;;;;;4979589;28;20177;-83
2023/05/09 05:44:30;;;;;;;8.17;5.97;;;11.80;99.90;;;;;;4979691;28;20211;-84
2023/05/09 05:46:55;;;;;;;11.37;7.93;;;12.00;99.90;;;;;;4981000;28;20287;-84
2023/05/09 05:49:21;;;;;;;9.33;6.97;;;12.10;99.90;;;;;;4973862;28;20545;-84
2023/05/09 05:51:46;;;;;;;7.80;6.03;;;12.10;99.90;;;;;;4975478;28;20188;-84
2023/05/09 05:54:12;;;;;;;8.53;6.07;;;12.30;99.90;;;;;;4982838;28;20179;-84
2023/05/09 05:56:38;;;;;;;6.63;5.50;;;12.40;99.90;;;;;;4988253;28;20248;-84
2023/05/09 05:59:03;;;;;;;9.63;6.60;;;12.50;99.90;;;;;;4987634;28;20218;-84
2023/05/09 06:01:29;;;;;;;53.33;26.63;;;12.60;99.90;;;;;;4973802;28;20936;-84
2023/05/09 06:03:55;;;;;;;12.93;8.47;;;12.70;99.90;;;;;;4977947;28;20263;-85
2023/05/09 06:06:21;;;;;;;8.17;6.00;;;12.80;99.90;;;;;;4988270;28;20196;-83
2023/05/09 06:08:50;;;;;;;8.98;5.57;;;12.90;99.90;;;;;;4986373;28;20188;-84
2023/05/09 06:11:16;;;;;;;8.73;5.63;;;13.00;99.90;;;;;;4971333;28;20704;-83
2023/05/09 06:13:42;;;;;;;8.50;5.47;;;13.10;99.90;;;;;;4997326;28;20216;-84
2023/05/09 06:16:08;;;;;;;10.00;6.30;;;13.10;99.90;;;;;;4976394;28;20449;-86
2023/05/09 06:18:36;;;;;;;7.80;5.73;;;13.20;99.90;;;;;;4978481;28;20267;-83
2023/05/09 06:21:02;;;;;;;7.47;5.67;;;13.30;99.90;;;;;;4980603;28;20453;-84
2023/05/09 06:23:28;;;;;;;7.83;5.07;;;13.30;99.90;;;;;;4978396;28;20477;-84
2023/05/09 06:25:54;;;;;;;10.23;5.43;;;13.40;99.90;;;;;;4997986;28;20520;-84
2023/05/09 06:28:20;;;;;;;6.80;5.00;;;13.50;99.90;;;;;;4979523;28;20315;-85
2023/05/09 06:30:46;;;;;;;9.47;5.87;;;13.60;99.90;;;;;;4964913;28;20207;-83
2023/05/09 06:33:11;;;;;;;7.40;5.90;;;13.70;99.90;;;;;;4963507;28;20639;-85
2023/05/09 06:35:37;;;;;;;6.97;5.47;;;13.80;99.90;;;;;;4970060;28;20462;-84
2023/05/09 06:38:03;;;;;;;9.77;5.13;;;13.70;99.90;;;;;;4965116;28;20196;-85
2023/05/09 06:40:28;;;;;;;7.47;5.00;;;13.60;99.90;;;;;;4956473;28;20212;-84
2023/05/09 06:42:54;;;;;;;6.30;5.50;;;13.70;99.90;;;;;;4953688;28;20231;-83
2023/05/09 06:45:20;;;;;;;7.17;5.50;;;13.80;99.90;;;;;;4959658;28;20200;-84
2023/05/09 06:47:45;;;;;;;8.00;5.30;;;13.80;99.90;;;;;;4969535;28;21000;-84
2023/05/09 06:50:11;;;;;;;7.90;5.20;;;13.90;99.90;;;;;;4953126;28;20207;-84
2023/05/09 06:52:37;;;;;;;5.77;4.50;;;13.90;99.90;;;;;;4952317;28;20237;-83
2023/05/09 06:55:03;;;;;;;8.30;5.43;;;13.90;99.90;;;;;;4957709;28;20227;-85
2023/05/09 06:57:29;;;;;;;6.33;5.37;;;14.00;99.90;;;;;;4972637;28;20180;-84
2023/05/09 06:59:54;;;;;;;7.13;5.60;;;14.10;99.90;;;;;;4956880;28;21248;-86
2023/05/09 07:02:20;;;;;;;6.10;5.10;;;14.20;99.90;;;;;;4954282;28;20887;-84
2023/05/09 07:04:46;;;;;;;7.53;5.43;;;14.30;99.90;;;;;;4955788;28;20435;-83
2023/05/09 07:07:12;;;;;;;7.67;5.10;;;14.40;99.90;;;;;;4950981;28;21324;-84
2023/05/09 07:09:37;;;;;;;8.53;5.20;;;14.40;99.90;;;;;;4960440;28;20204;-84
2023/05/09 07:12:03;;;;;;;6.47;5.40;;;14.60;99.90;;;;;;4962844;28;20195;-84
2023/05/09 07:14:29;;;;;;;6.40;5.07;;;14.70;99.90;;;;;;4954890;28;21192;-85
2023/05/09 07:16:54;;;;;;;9.80;4.90;;;14.70;99.90;;;;;;4954870;28;20468;-84
2023/05/09 07:19:20;;;;;;;7.27;5.20;;;14.80;99.90;;;;;;4958844;28;20303;-84
2023/05/09 07:21:46;;;;;;;6.00;5.10;;;14.80;99.90;;;;;;4951425;28;20200;-84
2023/05/09 07:24:11;;;;;;;6.10;5.00;;;14.90;99.90;;;;;;4949083;28;20228;-84
2023/05/09 07:26:37;;;;;;;6.60;4.67;;;15.10;99.90;;;;;;4953895;28;20337;-84
2023/05/09 07:29:02;;;;;;;9.47;4.77;;;15.20;99.90;;;;;;4953652;28;20316;-84
2023/05/09 07:31:29;;;;;;;5.73;4.50;;;15.20;99.90;;;;;;4953558;28;20235;-84
2023/05/09 07:33:54;;;;;;;5.27;4.77;;;15.30;99.90;;;;;;4955700;28;20246;-84
2023/05/09 07:36:20;;;;;;;5.77;4.63;;;15.40;99.90;;;;;;4959338;28;20905;-85
2023/05/09 07:38:51;;;;;;;6.10;4.67;;;15.50;99.90;;;;;;4960594;28;20331;-85
2023/05/09 07:41:17;;;;;;;4.80;4.30;;;15.50;99.90;;;;;;4961326;28;20752;-85
2023/05/09 07:43:43;;;;;;;5.77;4.60;;;15.70;99.90;;;;;;4981656;28;20493;-85
2023/05/09 07:46:08;;;;;;;5.50;4.37;;;15.80;99.90;;;;;;4987905;28;20544;-85
2023/05/09 07:48:34;;;;;;;6.00;5.07;;;15.90;99.90;;;;;;4981943;28;20200;-86
2023/05/09 07:50:59;;;;;;;7.13;4.67;;;16.00;99.90;;;;;;4991580;28;20234;-85
2023/05/09 07:53:25;;;;;;;7.00;4.83;;;16.10;99.90;;;;;;4990531;28;20187;-84
2023/05/09 07:55:51;;;;;;;8.27;4.67;;;16.10;99.90;;;;;;4987127;28;20207;-84
2023/05/09 07:58:17;;;;;;;5.53;4.50;;;16.20;99.90;;;;;;4988664;28;20437;-85
2023/05/09 08:00:43;;;;;;;5.60;4.70;;;16.30;99.90;;;;;;4994786;28;20196;-85
2023/05/09 08:03:09;;;;;;;6.10;4.47;;;16.40;99.90;;;;;;4991765;28;20689;-85
2023/05/09 08:05:34;;;;;;;4.77;4.37;;;16.50;99.90;;;;;;4990568;28;20585;-85
2023/05/09 08:08:00;;;;;;;5.27;4.73;;;16.50;99.90;;;;;;4989076;28;20195;-85
2023/05/09 08:10:29;;;;;;;6.63;4.20;;;16.70;99.90;;;;;;4991843;28;20203;-85
2023/05/09 08:12:55;;;;;;;6.37;5.37;;;16.70;99.90;;;;;;4986385;28;20191;-86
2023/05/09 08:15:21;;;;;;;7.00;4.70;;;16.70;99.90;;;;;;4991112;28;21257;-85
2023/05/09 08:17:46;;;;;;;5.93;4.43;;;16.80;99.90;;;;;;4986914;28;20429;-86
2023/05/09 08:20:12;;;;;;;47.37;29.43;;;16.90;99.90;;;;;;4986926;28;20206;-84
2023/05/09 08:22:39;;;;;;;6.13;4.70;;;17.00;99.90;;;;;;4985816;28;20179;-85
2023/05/09 08:25:08;;;;;;;6.00;4.53;;;17.10;99.90;;;;;;4986451;28;21150;-87
2023/05/09 08:27:33;;;;;;;7.10;4.20;;;17.30;99.90;;;;;;4989445;28;20417;-84
2023/05/09 08:29:59;;;;;;;5.67;4.43;;;17.40;99.90;;;;;;4990256;28;20803;-85
2023/05/09 08:32:25;;;;;;;5.90;3.60;;;17.50;99.90;;;;;;4981207;28;20180;-85
2023/05/09 08:34:51;;;;;;;5.27;4.23;;;17.60;99.90;;;;;;4988949;28;20274;-84
2023/05/09 08:37:16;;;;;;;5.40;4.27;;;17.70;99.90;;;;;;4984536;28;20172;-84
2023/05/09 08:39:42;;;;;;;6.57;4.03;;;17.90;99.90;;;;;;4986140;28;20187;-85
2023/05/09 08:42:09;;;;;;;6.03;4.77;;;18.00;99.90;;;;;;4989230;28;20191;-84
2023/05/09 08:44:34;;;;;;;5.10;3.90;;;18.10;99.90;;;;;;4977523;28;20494;-84
2023/05/09 08:47:02;;;;;;;11.60;4.27;;;18.10;99.90;;;;;;4976118;28;21094;-84
2023/05/09 08:49:29;;;;;;;4.37;4.07;;;18.20;99.90;;;;;;4985775;28;20185;-83
2023/05/09 08:51:55;;;;;;;5.10;4.40;;;18.30;99.90;;;;;;4988866;28;20454;-85
2023/05/09 08:54:22;;;;;;;3.90;3.50;;;18.40;99.90;;;;;;4984121;28;20806;-84
2023/05/09 08:56:49;;;;;;;5.10;4.10;;;18.50;99.90;;;;;;4985202;28;20446;-84
2023/05/09 08:59:16;;;;;;;5.90;3.60;;;18.60;99.90;;;;;;4975408;28;21174;-84
2023/05/09 09:01:42;;;;;;;5.03;3.90;;;18.70;99.90;;;;;;4985989;28;20495;-85
2023/05/09 09:04:10;;;;;;;5.03;3.93;;;18.60;99.90;;;;;;4979818;28;21092;-84
2023/05/09 09:06:37;;;;;;;5.10;3.70;;;18.50;99.90;;;;;;4979665;28;20509;-84
2023/05/09 09:09:05;;;;;;;4.57;4.07;;;18.60;99.90;;;;;;4972311;28;20431;-84
2023/05/09 09:11:32;;;;;;;6.20;5.60;;;18.70;99.90;;;;;;4971532;28;20451;-85
2023/05/09 09:14:01;;;;;;;12.00;8.60;;;18.70;99.90;;;;;;4982044;28;20501;-83
2023/05/09 09:16:28;;;;;;;4.23;3.60;;;18.50;99.90;;;;;;4972677;28;20450;-84
2023/05/09 09:18:55;;;;;;;4.03;3.13;;;18.60;99.90;;;;;;4977791;28;20478;-84
2023/05/09 09:21:22;;;;;;;5.33;4.00;;;18.60;99.90;;;;;;4975305;28;20471;-84
2023/05/09 09:23:49;;;;;;;4.13;3.30;;;18.60;99.90;;;;;;4982310;28;20479;-85
2023/05/09 09:26:15;;;;;;;4.60;3.57;;;18.70;99.90;;;;;;4979659;28;20455;-83
2023/05/09 09:28:41;;;;;;;4.67;3.50;;;18.70;99.90;;;;;;4987090;28;20845;-84
2023/05/09 09:31:24;;;;;;;3.80;3.47;;;18.80;99.90;;;;;;4987265;28;20450;-83
2023/05/09 09:33:50;;;;;;;7.60;3.63;;;18.80;99.90;;;;;;4985911;28;20508;-84
2023/05/09 09:36:25;;;;;;;5.27;3.50;;;18.70;99.90;;;;;;4979026;28;20449;-84
2023/05/09 09:38:57;;;;;;;4.83;3.87;;;18.90;99.90;;;;;;4975642;28;20440;-85
2023/05/09 09:41:33;;;;;;;4.93;3.40;;;19.00;99.90;;;;;;4979579;28;20541;-84
2023/05/09 09:44:05;;;;;;;5.07;4.57;;;19.00;99.90;;;;;;4991408;28;20561;-85
2023/05/09 09:46:43;;;;;;;4.03;3.73;;;19.10;99.90;;;;;;4971141;28;20457;-84
2023/05/09 09:49:11;;;;;;;3.83;3.20;;;19.10;99.90;;;;;;4981204;28;20446;-84
2023/05/09 09:51:36;;;;;;;5.47;3.83;;;19.00;99.90;;;;;;4982496;28;20451;-83
2023/05/09 09:54:03;;;;;;;4.90;3.70;;;19.10;99.90;;;;;;4982871;28;20492;-85
2023/05/09 09:56:47;;;;;;;4.47;2.90;;;19.20;99.90;;;;;;4975341;28;20550;-84
2023/05/09 09:59:12;;;;;;;4.73;3.50;;;19.40;99.90;;;;;;4977721;28;21006;-85
2023/05/09 10:02:01;;;;;;;5.50;4.00;;;19.40;99.90;;;;;;4975398;28;20462;-85
2023/05/09 10:04:32;;;;;;;5.10;4.20;;;19.30;99.90;;;;;;4995619;28;20328;-84
2023/05/09 10:06:59;;;;;;;3.80;3.50;;;19.20;99.90;;;;;;4987274;28;20573;-84
2023/05/09 10:09:26;;;;;;;5.90;3.80;;;19.10;99.90;;;;;;4979178;28;20446;-83
2023/05/09 10:11:53;;;;;;;6.03;4.33;;;19.10;99.90;;;;;;4983062;28;20454;-84
2023/05/09 10:14:24;;;;;;;5.00;4.00;;;19.10;99.90;;;;;;4984033;28;20973;-84
2023/05/09 10:16:53;;;;;;;4.40;4.00;;;19.20;99.90;;;;;;4980169;28;20465;-83
2023/05/09 10:19:20;;;;;;;4.40;3.60;;;19.20;99.90;;;;;;4972216;28;20527;-83
2023/05/09 10:21:52;;;;;;;5.20;4.17;;;19.20;99.90;;;;;;4973129;28;20460;-84
2023/05/09 10:24:25;;;;;;;4.37;3.97;;;19.20;99.90;;;;;;4979849;28;20490;-84
2023/05/09 10:26:55;;;;;;;4.73;4.10;;;19.10;99.90;;;;;;4975152;28;20481;-84
2023/05/09 10:29:25;;;;;;;4.57;4.17;;;19.20;99.90;;;;;;4981418;28;20542;-84
2023/05/09 10:32:01;;;;;;;7.30;4.50;;;19.30;99.90;;;;;;4973994;28;20812;-84
2023/05/09 10:34:31;;;;;;;6.43;4.37;;;19.40;99.90;;;;;;4976294;28;20962;-84
2023/05/09 10:36:59;;;;;;;4.60;4.23;;;19.50;99.90;;;;;;4985083;28;20457;-84
2023/05/09 10:39:26;;;;;;;5.40;4.80;;;19.50;99.90;;;;;;4982056;28;20455;-85
2023/05/09 10:41:53;;;;;;;6.90;4.47;;;19.50;99.90;;;;;;4983536;28;20451;-85
2023/05/09 10:44:21;;;;;;;5.00;4.50;;;19.50;99.90;;;;;;4982180;28;20566;-84
2023/05/09 10:46:47;;;;;;;4.80;4.27;;;19.50;99.90;;;;;;4990009;28;20456;-84
2023/05/09 10:49:13;;;;;;;4.53;4.10;;;19.40;99.90;;;;;;4985321;28;20447;-84
2023/05/09 10:51:38;;;;;;;4.43;4.03;;;19.40;99.90;;;;;;4981895;28;20542;-84
2023/05/09 10:54:14;;;;;;;5.07;4.57;;;19.50;99.90;;;;;;4981783;28;20488;-84
2023/05/09 10:56:39;;;;;;;4.60;4.20;;;19.70;99.90;;;;;;4980635;28;20237;-84
2023/05/09 10:59:05;;;;;;;4.50;4.10;;;19.70;99.90;;;;;;4979451;28;20996;-84
2023/05/09 11:01:35;;;;;;;7.57;4.70;;;19.80;99.90;;;;;;4979878;28;20233;-84
2023/05/09 11:04:16;;;;;;;4.97;4.30;;;19.90;99.90;;;;;;4983538;28;20242;-85
2023/05/09 11:06:52;;;;;;;5.10;4.40;;;19.90;99.90;;;;;;4981008;28;20490;-84
2023/05/09 11:09:36;;;;;;;6.90;4.87;;;19.80;99.90;;;;;;4981226;28;20438;-84
2023/05/09 11:12:13;;;;;;;5.20;4.70;;;19.90;99.90;;;;;;4991695;28;20429;-83
2023/05/09 11:14:44;;;;;;;5.70;4.70;;;19.90;99.90;;;;;;4980670;28;21011;-85
2023/05/09 11:17:12;;;;;;;5.17;4.50;;;20.00;99.90;;;;;;4985333;28;20466;-85
2023/05/09 11:19:44;;;;;;;4.27;3.87;;;20.00;99.90;;;;;;4985677;28;20444;-85
2023/05/09 11:22:14;;;;;;;4.97;4.50;;;20.10;99.90;;;;;;4984144;28;20456;-84
2023/05/09 11:24:51;;;;;;;4.70;4.07;;;20.30;99.90;;;;;;4979324;28;20480;-84
2023/05/09 11:27:21;;;;;;;5.90;5.10;;;20.40;99.90;;;;;;4983532;28;20509;-85
2023/05/09 11:29:52;;;;;;;5.43;4.60;;;20.40;99.90;;;;;;4983831;28;20475;-84
2023/05/09 11:32:19;;;;;;;5.80;5.20;;;20.30;99.90;;;;;;4981207;28;20518;-84
2023/05/09 11:34:45;;;;;;;4.40;4.00;;;20.30;99.90;;;;;;4987981;28;20441;-84
2023/05/09 11:37:14;;;;;;;6.60;4.27;;;20.40;99.90;;;;;;4977600;28;20452;-84
2023/05/09 11:39:56;;;;;;;6.20;5.03;;;20.50;99.80;;;;;;4983833;28;20984;-84
2023/05/09 11:42:29;;;;;;;6.67;4.10;;;20.40;99.80;;;;;;4983214;28;20777;-85
2023/05/09 11:44:58;;;;;;;5.10;4.10;;;20.50;99.90;;;;;;4982785;28;22948;-85
2023/05/09 11:47:25;;;;;;;4.77;4.27;;;20.60;99.90;;;;;;4990643;28;20519;-84
2023/05/09 11:49:51;;;;;;;5.60;4.07;;;20.70;99.90;;;;;;4990931;28;20972;-85
2023/05/09 11:52:21;;;;;;;7.37;5.00;;;20.80;99.90;;;;;;4989889;28;20522;-84
2023/05/09 11:54:48;;;;;;;5.17;4.67;;;20.80;99.60;;;;;;4986817;28;20470;-85
2023/05/09 11:57:18;;;;;;;4.40;4.00;;;20.80;99.60;;;;;;4988605;28;20432;-84
2023/05/09 11:59:44;;;;;;;5.00;4.57;;;20.90;99.60;;;;;;4982812;28;20849;-85
2023/05/09 12:02:10;;;;;;;7.77;4.17;;;21.00;99.40;;;;;;4975973;28;20465;-85
2023/05/09 12:04:37;;;;;;;8.90;4.87;;;21.00;99.20;;;;;;4988600;28;20246;-84
2023/05/09 12:07:03;;;;;;;6.50;4.47;;;20.90;98.70;;;;;;4987029;28;20440;-84
2023/05/09 12:09:33;;;;;;;7.73;5.10;;;20.90;99.00;;;;;;4979332;28;20441;-85
2023/05/09 12:12:00;;;;;;;8.57;4.00;;;21.00;98.70;;;;;;4985011;28;20234;-85
2023/05/09 12:14:33;;;;;;;4.87;4.37;;;21.00;98.20;;;;;;4982805;28;20877;-85
2023/05/09 12:16:59;;;;;;;5.33;4.57;;;21.00;98.40;;;;;;4987170;28;20664;-85
2023/05/09 12:19:26;;;;;;;3.97;3.53;;;21.00;98.30;;;;;;4980208;28;20436;-85
2023/05/09 12:21:58;;;;;;;4.60;4.20;;;21.10;98.40;;;;;;4980801;28;20537;-85
2023/05/09 12:24:29;;;;;;;4.67;3.83;;;21.20;98.70;;;;;;4978419;28;20462;-85
2023/05/09 12:26:56;;;;;;;4.93;3.80;;;21.20;98.40;;;;;;4978116;28;20453;-84
2023/05/09 12:29:23;;;;;;;5.60;5.00;;;21.30;98.80;;;;;;4978540;28;20518;-84
2023/05/09 12:31:50;;;;;;;4.90;4.50;;;21.30;98.50;;;;;;4979796;28;20484;-85
2023/05/09 12:34:16;;;;;;;4.60;4.20;;;21.30;98.40;;;;;;4979552;28;20580;-84
2023/05/09 12:36:52;;;;;;;5.17;4.30;;;21.20;98.30;;;;;;4975022;28;20897;-85
2023/05/09 12:39:21;;;;;;;4.27;3.87;;;21.20;98.30;;;;;;4978195;28;21043;-84
2023/05/09 12:41:50;;;;;;;7.30;4.90;;;21.20;98.20;;;;;;4988505;28;20515;-84
2023/05/09 12:44:24;;;;;;;4.90;4.43;;;21.20;98.20;;;;;;4980811;28;20475;-84
2023/05/09 12:46:59;;;;;;;4.57;4.17;;;21.10;98.00;;;;;;4985721;28;20465;-84